createdAt,value
2018-12-21T00:01:56.571Z,96157.19
2018-12-21T00:04:25.109Z,96442.00
2018-12-21T00:06:53.676Z,96440.86
2018-12-21T00:09:22.230Z,96435.86
2018-12-21T00:11:50.844Z,96440.63
2018-12-21T00:14:19.499Z,96440.02
2018-12-21T00:16:48.072Z,96440.05
2018-12-21T00:19:16.640Z,96446.66
2018-12-21T00:21:45.231Z,96444.48
2018-12-21T00:24:13.905Z,96451.48
2018-12-21T00:26:42.518Z,96454.63
2018-12-21T00:29:11.055Z,96451.25
2018-12-21T00:31:44.794Z,96455.22
2018-12-21T00:34:18.522Z,96459.92
2018-12-21T00:36:52.421Z,96459.42
2018-12-21T00:39:26.251Z,96462.14
2018-12-21T00:41:53.948Z,96459.61
2018-12-21T00:44:31.820Z,96462.95
2018-12-21T00:47:02.468Z,96460.31
2018-12-21T00:49:31.128Z,96464.63
2018-12-21T00:51:59.645Z,96464.87
2018-12-21T00:54:28.245Z,96465.77
2018-12-21T00:56:56.746Z,96451.50
2018-12-21T00:59:25.481Z,96450.60
2018-12-21T01:01:54.286Z,96451.64
2018-12-21T01:04:22.977Z,96414.88
2018-12-21T01:06:51.670Z,96453.63
2018-12-21T01:09:20.409Z,96461.12
2018-12-21T01:11:49.017Z,96459.61
2018-12-21T01:14:17.741Z,96465.26
2018-12-21T01:16:46.418Z,96458.57
2018-12-21T01:19:15.081Z,96456.61
2018-12-21T01:21:43.684Z,96459.16
2018-12-21T01:24:12.232Z,96458.86
2018-12-21T01:26:40.845Z,96450.91
2018-12-21T01:29:09.471Z,96460.33
2018-12-21T01:31:38.062Z,96457.25
2018-12-21T01:34:06.635Z,96454.14
2018-12-21T01:36:35.217Z,96455.48
2018-12-21T01:39:04.309Z,96450.84
2018-12-21T01:41:32.932Z,96450.41
2018-12-21T01:44:01.449Z,96448.94
2018-12-21T01:46:30.011Z,96452.97
2018-12-21T01:48:58.713Z,96458.91
2018-12-21T01:51:27.555Z,96451.73
2018-12-21T01:53:56.217Z,96456.70
2018-12-21T01:56:24.761Z,96457.69
2018-12-21T01:58:53.339Z,96461.62
2018-12-21T02:01:22.053Z,96458.69
2018-12-21T02:03:50.621Z,96459.89
2018-12-21T02:06:19.117Z,96460.17
2018-12-21T02:08:47.661Z,96456.29
2018-12-21T02:11:16.230Z,96453.88
2018-12-21T02:13:44.926Z,96453.38
2018-12-21T02:16:13.533Z,96447.72
2018-12-21T02:18:42.152Z,96435.52
2018-12-21T02:21:10.746Z,96444.59
2018-12-21T02:23:39.348Z,96443.20
2018-12-21T02:26:07.929Z,96442.95
2018-12-21T02:28:36.542Z,96450.75
2018-12-21T02:31:05.106Z,96451.46
2018-12-21T02:33:33.661Z,96445.16
2018-12-21T02:36:02.276Z,96442.19
2018-12-21T02:38:30.837Z,96443.02
2018-12-21T02:40:59.412Z,96437.17
2018-12-21T02:43:27.974Z,96447.72
2018-12-21T02:45:56.604Z,96449.27
2018-12-21T02:48:25.189Z,96445.55
2018-12-21T02:50:53.745Z,96445.38
2018-12-21T02:53:22.451Z,96454.64
2018-12-21T02:55:51.012Z,96460.71
2018-12-21T02:58:19.628Z,96465.64
2018-12-21T03:00:48.195Z,96447.53
2018-12-21T03:03:16.751Z,96454.70
2018-12-21T03:05:45.375Z,96450.19
2018-12-21T03:08:13.908Z,96451.88
2018-12-21T03:10:42.487Z,96458.80
2018-12-21T03:13:11.004Z,96462.77
2018-12-21T03:15:39.537Z,96458.47
2018-12-21T03:18:08.165Z,96464.33
2018-12-21T03:20:36.691Z,96458.05
2018-12-21T03:23:05.264Z,96457.99
2018-12-21T03:25:33.831Z,96459.41
2018-12-21T03:28:02.589Z,96455.30
2018-12-21T03:30:31.181Z,96454.56
2018-12-21T03:32:59.769Z,96457.34
2018-12-21T03:35:28.350Z,96455.30
2018-12-21T03:37:56.931Z,96455.19
2018-12-21T03:40:25.488Z,96450.02
2018-12-21T03:42:54.091Z,96452.49
2018-12-21T03:45:22.688Z,96449.86
2018-12-21T03:47:51.258Z,96463.38
2018-12-21T03:50:19.816Z,96466.15
2018-12-21T03:52:48.407Z,96457.91
2018-12-21T03:55:16.930Z,96455.41
2018-12-21T03:57:45.490Z,96454.85
2018-12-21T04:00:14.474Z,96457.63
2018-12-21T04:02:43.201Z,96458.58
2018-12-21T04:05:11.734Z,96452.80
2018-12-21T04:07:40.326Z,96459.39
2018-12-21T04:10:09.036Z,96453.70
2018-12-21T04:12:37.584Z,96445.70
2018-12-21T04:15:06.644Z,96453.06
2018-12-21T04:17:35.206Z,96446.47
2018-12-21T04:20:04.085Z,96445.77
2018-12-21T04:22:34.194Z,96447.27
2018-12-21T04:25:03.251Z,96436.66
2018-12-21T04:27:31.839Z,96446.45
2018-12-21T04:30:00.408Z,96448.78
2018-12-21T04:32:29.017Z,96447.27
2018-12-21T04:34:57.571Z,96452.36
2018-12-21T04:37:26.153Z,96448.84
2018-12-21T04:39:54.675Z,96460.88
2018-12-21T04:42:23.207Z,96458.60
2018-12-21T04:44:51.758Z,96456.19
2018-12-21T04:47:20.298Z,96465.39
2018-12-21T04:49:48.939Z,96463.47
2018-12-21T04:52:17.500Z,96456.90
2018-12-21T04:54:46.139Z,96455.08
2018-12-21T04:57:14.713Z,96444.84
2018-12-21T04:59:43.247Z,96452.39
2018-12-21T05:02:11.805Z,96465.23
2018-12-21T05:04:40.430Z,96467.73
2018-12-21T05:07:12.508Z,96462.73
2018-12-21T05:09:39.623Z,96459.79
2018-12-21T05:12:08.253Z,96459.28
2018-12-21T05:14:36.884Z,96464.33
2018-12-21T05:17:05.497Z,96462.28
2018-12-21T05:19:34.084Z,96448.83
2018-12-21T05:22:02.684Z,96458.25
2018-12-21T05:24:33.172Z,96458.91
2018-12-21T05:27:01.758Z,96467.21
2018-12-21T05:29:30.277Z,96472.02
2018-12-21T05:31:58.916Z,96474.31
2018-12-21T05:34:27.426Z,96475.25
2018-12-21T05:36:55.948Z,96472.34
2018-12-21T05:39:24.536Z,96477.48
2018-12-21T05:41:53.124Z,96483.99
2018-12-21T05:44:21.624Z,96485.45
2018-12-21T05:46:50.191Z,96483.94
2018-12-21T05:49:18.926Z,96488.25
2018-12-21T05:51:47.542Z,96490.47
2018-12-21T05:54:16.229Z,96488.00
2018-12-21T05:56:44.782Z,96488.36
2018-12-21T05:59:13.360Z,96496.52
2018-12-21T06:01:41.988Z,96492.30
2018-12-21T06:04:10.562Z,96503.08
2018-12-21T06:06:39.187Z,96500.36
2018-12-21T06:09:08.967Z,96498.81
2018-12-21T06:11:37.699Z,96500.05
2018-12-21T06:14:06.256Z,96490.42
2018-12-21T06:16:34.838Z,96489.73
2018-12-21T06:19:03.618Z,96488.08
2018-12-21T06:21:32.182Z,96492.17
2018-12-21T06:24:00.744Z,96495.06
2018-12-21T06:26:29.276Z,96485.92
2018-12-21T06:28:57.828Z,96485.61
2018-12-21T06:31:26.443Z,96481.47
2018-12-21T06:33:55.019Z,96481.55
2018-12-21T06:36:23.647Z,96489.73
2018-12-21T06:38:52.408Z,96478.74
2018-12-21T06:41:21.152Z,96487.30
2018-12-21T06:43:49.755Z,96482.39
2018-12-21T06:46:18.394Z,96477.45
2018-12-21T06:48:47.301Z,96465.89
2018-12-21T06:51:16.025Z,96470.29
2018-12-21T06:53:44.637Z,96465.37
2018-12-21T06:56:13.293Z,96472.48
2018-12-21T06:58:41.821Z,96473.47
2018-12-21T07:01:10.444Z,96471.15
2018-12-21T07:03:39.044Z,96472.97
2018-12-21T07:06:07.592Z,96479.67
2018-12-21T07:08:36.145Z,96479.84
2018-12-21T07:11:04.847Z,96482.03
2018-12-21T07:13:33.430Z,96492.69
2018-12-21T07:16:02.015Z,96499.25
2018-12-21T07:18:30.587Z,96502.08
2018-12-21T07:20:59.185Z,96500.42
2018-12-21T07:23:27.828Z,96503.15
2018-12-21T07:25:56.367Z,96504.16
2018-12-21T07:28:25.009Z,96510.27
2018-12-21T07:30:53.824Z,96513.22
2018-12-21T07:33:22.381Z,96510.45
2018-12-21T07:35:50.959Z,96502.02
2018-12-21T07:38:19.559Z,96507.52
2018-12-21T07:40:48.188Z,96518.34
2018-12-21T07:43:16.774Z,96522.95
2018-12-21T07:45:45.371Z,96517.51
2018-12-21T07:48:13.957Z,96508.70
2018-12-21T07:50:42.557Z,96520.73
2018-12-21T07:53:11.278Z,96531.00
2018-12-21T07:55:39.853Z,96523.17
2018-12-21T07:58:08.375Z,96525.75
2018-12-21T08:00:36.998Z,96525.75
2018-12-21T08:03:05.664Z,96529.80
2018-12-21T08:05:34.225Z,96522.75
2018-12-21T08:08:02.859Z,96541.03
2018-12-21T08:10:31.487Z,96542.02
2018-12-21T08:13:00.082Z,96325.14
2018-12-21T08:15:29.318Z,96533.52
2018-12-21T08:17:57.915Z,96529.33
2018-12-21T08:20:26.496Z,96529.64
2018-12-21T08:22:55.141Z,96529.58
2018-12-21T08:25:23.739Z,96526.59
2018-12-21T08:27:52.333Z,96531.42
2018-12-21T08:30:20.921Z,96524.90
2018-12-21T08:32:49.518Z,96525.41
2018-12-21T08:35:18.181Z,96523.30
2018-12-21T08:37:46.739Z,96521.92
2018-12-21T08:40:15.341Z,96521.27
2018-12-21T08:42:43.938Z,96521.11
2018-12-21T08:45:12.565Z,96529.18
2018-12-21T08:47:41.171Z,96525.96
2018-12-21T08:50:11.072Z,96522.45
2018-12-21T08:52:39.653Z,96515.70
2018-12-21T08:55:08.383Z,96513.37
2018-12-21T08:57:36.982Z,96507.55
2018-12-21T09:00:13.554Z,96503.08
2018-12-21T09:02:42.166Z,96509.32
2018-12-21T09:05:10.769Z,96499.85
2018-12-21T09:07:39.340Z,96500.16
2018-12-21T09:10:10.146Z,96511.88
2018-12-21T09:12:39.293Z,96521.11
2018-12-21T09:15:11.939Z,96512.59
2018-12-21T09:17:40.541Z,96502.37
2018-12-21T09:20:10.626Z,96500.13
2018-12-21T09:22:39.332Z,96504.61
2018-12-21T09:25:08.006Z,96501.52
2018-12-21T09:27:36.590Z,96506.79
2018-12-21T09:30:11.629Z,96504.53
2018-12-21T09:32:40.207Z,96490.39
2018-12-21T09:35:08.920Z,96486.36
2018-12-21T09:37:37.551Z,96473.81
2018-12-21T09:40:10.215Z,96459.21
2018-12-21T09:42:39.122Z,96464.30
2018-12-21T09:45:07.907Z,96447.66
2018-12-21T09:47:36.539Z,96449.05
2018-12-21T09:50:06.655Z,96441.94
2018-12-21T09:52:35.205Z,96441.58
2018-12-21T09:55:03.839Z,96437.50
2018-12-21T09:57:32.421Z,96440.30
2018-12-21T10:00:01.015Z,96435.12
2018-12-21T10:02:35.731Z,96428.09
2018-12-21T10:05:00.292Z,96431.08
2018-12-21T10:07:28.897Z,96433.47
2018-12-21T10:09:58.475Z,96426.29
2018-12-21T10:12:26.998Z,96428.63
2018-12-21T10:14:55.574Z,96430.80
2018-12-21T10:17:24.221Z,96428.96
2018-12-21T10:19:52.827Z,96434.83
2018-12-21T10:22:21.420Z,96432.78
2018-12-21T10:24:49.925Z,96440.13
2018-12-21T10:27:18.491Z,96442.48
2018-12-21T10:29:47.045Z,96434.44
2018-12-21T10:32:15.662Z,96436.14
2018-12-21T10:34:44.218Z,96435.13
2018-12-21T10:37:12.766Z,96434.97
2018-12-21T10:39:41.322Z,96322.97
2018-12-21T10:42:09.934Z,96408.23
2018-12-21T10:44:38.519Z,96411.01
2018-12-21T10:47:07.113Z,96411.46
2018-12-21T10:49:35.714Z,96413.04
2018-12-21T10:52:04.344Z,96411.92
2018-12-21T10:54:32.870Z,96402.41
2018-12-21T10:57:01.457Z,96400.01
2018-12-21T10:59:30.009Z,96403.04
2018-12-21T11:01:58.604Z,96401.91
2018-12-21T11:04:27.198Z,96396.18
2018-12-21T11:06:55.956Z,96390.95
2018-12-21T11:09:24.517Z,96395.72
2018-12-21T11:11:53.142Z,96390.66
2018-12-21T11:14:21.666Z,96386.88
2018-12-21T11:16:50.276Z,96374.15
2018-12-21T11:19:18.925Z,96382.27
2018-12-21T11:21:47.469Z,96376.71
2018-12-21T11:24:16.088Z,96381.20
2018-12-21T11:26:44.646Z,96378.50
2018-12-21T11:29:13.249Z,96378.88
2018-12-21T11:31:41.811Z,96374.75
2018-12-21T11:34:10.424Z,96368.31
2018-12-21T11:36:39.215Z,96362.41
2018-12-21T11:39:07.771Z,96362.36
2018-12-21T11:41:36.349Z,96361.30
2018-12-21T11:44:04.968Z,96354.88
2018-12-21T11:46:33.537Z,96358.03
2018-12-21T11:49:02.236Z,96350.85
2018-12-21T11:51:30.805Z,96343.61
2018-12-21T11:53:59.400Z,96337.80
2018-12-21T11:56:27.944Z,96338.36
2018-12-21T11:58:56.524Z,96338.53
2018-12-21T12:01:25.067Z,96335.05
2018-12-21T12:03:53.586Z,96329.92
2018-12-21T12:06:22.144Z,96330.27
2018-12-21T12:08:50.687Z,96322.64
2018-12-21T12:11:19.228Z,96335.72
2018-12-21T12:13:47.733Z,96341.48
2018-12-21T12:16:16.303Z,96337.25
2018-12-21T12:18:44.845Z,96335.52
2018-12-21T12:21:13.405Z,96334.09
2018-12-21T12:23:41.992Z,96334.84
2018-12-21T12:26:10.576Z,96340.89
2018-12-21T12:28:39.094Z,96332.14
2018-12-21T12:31:07.673Z,96324.12
2018-12-21T12:33:36.310Z,96328.58
2018-12-21T12:36:04.947Z,96330.55
2018-12-21T12:38:33.557Z,96314.83
2018-12-21T12:41:06.541Z,96315.23
2018-12-21T12:43:32.751Z,96317.33
2018-12-21T12:46:01.301Z,96315.05
2018-12-21T12:48:29.859Z,96307.57
2018-12-21T12:50:58.528Z,96315.02
2018-12-21T12:53:27.090Z,95944.23
2018-12-21T12:55:55.754Z,96312.80
2018-12-21T12:58:24.541Z,96322.83
2018-12-21T13:00:53.151Z,96333.60
2018-12-21T13:03:21.706Z,96335.73
2018-12-21T13:05:50.354Z,96341.22
2018-12-21T13:08:18.974Z,96351.05
2018-12-21T13:10:47.652Z,96349.23
2018-12-21T13:13:16.251Z,96337.92
2018-12-21T13:15:44.861Z,96333.96
2018-12-21T13:18:13.455Z,96326.84
2018-12-21T13:20:42.068Z,96339.56
2018-12-21T13:23:10.658Z,96342.17
2018-12-21T13:25:39.252Z,96337.84
2018-12-21T13:28:07.850Z,96334.87
2018-12-21T13:30:36.474Z,96325.34
2018-12-21T13:33:05.032Z,96324.70
2018-12-21T13:35:33.607Z,96326.47
2018-12-21T13:38:02.278Z,96319.64
2018-12-21T13:40:30.833Z,96327.84
2018-12-21T13:42:59.426Z,96328.78
2018-12-21T13:45:28.015Z,96326.86
2018-12-21T13:47:56.599Z,96336.61
2018-12-21T13:50:25.179Z,96320.67
2018-12-21T13:52:53.714Z,96316.66
2018-12-21T13:55:22.456Z,96314.39
2018-12-21T13:57:51.030Z,96319.30
2018-12-21T14:00:19.610Z,96317.67
2018-12-21T14:02:48.190Z,96318.09
2018-12-21T14:05:16.785Z,96324.95
2018-12-21T14:07:45.373Z,96309.52
2018-12-21T14:10:14.238Z,96298.64
2018-12-21T14:12:42.806Z,96298.66
2018-12-21T14:15:11.384Z,96306.03
2018-12-21T14:17:40.012Z,96310.27
2018-12-21T14:20:11.242Z,96311.53
2018-12-21T14:22:39.829Z,96324.55
2018-12-21T14:25:09.069Z,96332.63
2018-12-21T14:27:37.721Z,96332.80
2018-12-21T14:30:13.812Z,96330.16
2018-12-21T14:32:42.469Z,96343.27
2018-12-21T14:35:11.074Z,96335.84
2018-12-21T14:37:39.664Z,96334.94
2018-12-21T14:40:08.372Z,96342.10
2018-12-21T14:42:37.011Z,96349.45
2018-12-21T14:45:05.977Z,96345.32
2018-12-21T14:47:34.578Z,96359.68
2018-12-21T14:50:03.212Z,96352.67
2018-12-21T14:52:31.727Z,96352.67
2018-12-21T14:55:00.291Z,96349.98
2018-12-21T14:57:28.996Z,96346.32
2018-12-21T14:59:57.612Z,96349.92
2018-12-21T15:02:26.196Z,96346.91
2018-12-21T15:04:54.811Z,96351.29
2018-12-21T15:07:23.386Z,96348.75
2018-12-21T15:09:52.000Z,96346.25
2018-12-21T15:12:20.528Z,96356.89
2018-12-21T15:14:49.124Z,96349.53
2018-12-21T15:17:17.763Z,96350.34
2018-12-21T15:19:46.314Z,96345.64
2018-12-21T15:22:14.865Z,96348.45
2018-12-21T15:24:43.383Z,96338.19
2018-12-21T15:27:12.007Z,96343.48
2018-12-21T15:29:41.178Z,96350.09
2018-12-21T15:32:09.914Z,96355.50
2018-12-21T15:34:38.491Z,96350.09
2018-12-21T15:37:07.079Z,96348.77
2018-12-21T15:39:35.637Z,96356.83
2018-12-21T15:42:04.215Z,96358.08
2018-12-21T15:44:32.776Z,96356.25
2018-12-21T15:47:08.782Z,96355.28
2018-12-21T15:49:32.184Z,96357.31
2018-12-21T15:52:00.729Z,96345.59
2018-12-21T15:54:29.341Z,96335.37
2018-12-21T15:56:57.955Z,96336.69
2018-12-21T15:59:26.653Z,96341.43
2018-12-21T16:01:55.256Z,96338.14
2018-12-21T16:04:23.912Z,96336.99
2018-12-21T16:06:58.982Z,96339.06
2018-12-21T16:09:27.543Z,96330.56
2018-12-21T16:11:56.167Z,96329.71
2018-12-21T16:14:24.736Z,96337.33
2018-12-21T16:16:53.334Z,96336.65
2018-12-21T16:19:22.010Z,96336.41
2018-12-21T16:21:50.534Z,96336.98
2018-12-21T16:24:19.057Z,96344.40
2018-12-21T16:26:47.649Z,96347.34
2018-12-21T16:29:16.236Z,96347.34
2018-12-21T16:31:45.213Z,96346.16
2018-12-21T16:34:14.214Z,96362.02
2018-12-21T16:36:43.148Z,96364.45
2018-12-21T16:39:12.116Z,96364.31
2018-12-21T16:41:41.258Z,96374.20
2018-12-21T16:44:09.986Z,96372.37
2018-12-21T16:46:38.623Z,96362.11
2018-12-21T16:49:07.858Z,96368.11
2018-12-21T16:51:36.455Z,96366.55
2018-12-21T16:54:05.013Z,96353.11
2018-12-21T16:56:33.603Z,96359.27
2018-12-21T16:59:02.229Z,96366.92
2018-12-21T17:01:30.775Z,96355.75
2018-12-21T17:03:59.356Z,96356.36
2018-12-21T17:06:27.940Z,96357.17
2018-12-21T17:08:56.499Z,96348.91
2018-12-21T17:11:25.067Z,96340.17
2018-12-21T17:13:53.664Z,96345.76
2018-12-21T17:16:22.208Z,96337.40
2018-12-21T17:18:50.772Z,96344.03
2018-12-21T17:21:19.356Z,96344.20
2018-12-21T17:23:47.954Z,95813.70
2018-12-21T17:26:21.172Z,96343.46
2018-12-21T17:28:47.078Z,96346.44
2018-12-21T17:31:15.723Z,96351.96
2018-12-21T17:33:44.327Z,96342.98
2018-12-21T17:36:12.858Z,96342.98
2018-12-21T17:38:41.388Z,96340.73
2018-12-21T17:41:09.958Z,96335.39
2018-12-21T17:43:38.599Z,96330.11
2018-12-21T17:46:07.258Z,96331.94
2018-12-21T17:48:35.944Z,96336.06
2018-12-21T17:51:04.586Z,96345.97
2018-12-21T17:53:33.152Z,96337.44
2018-12-21T17:56:01.723Z,96334.31
2018-12-21T17:58:30.222Z,96331.16
2018-12-21T18:00:58.802Z,96339.01
2018-12-21T18:03:44.119Z,96333.66
2018-12-21T18:06:12.661Z,96335.64
2018-12-21T18:08:41.185Z,96340.18
2018-12-21T18:11:09.756Z,96335.99
2018-12-21T18:13:38.324Z,96331.18
2018-12-21T18:16:06.899Z,96330.22
2018-12-21T18:18:35.525Z,96329.86
2018-12-21T18:21:04.631Z,96320.09
2018-12-21T18:23:34.663Z,96314.39
2018-12-21T18:26:03.230Z,96319.16
2018-12-21T18:28:31.825Z,96315.44
2018-12-21T18:31:13.093Z,96319.09
2018-12-21T18:33:43.932Z,96311.95
2018-12-21T18:36:12.497Z,96327.69
2018-12-21T18:38:41.171Z,96320.44
2018-12-21T18:41:09.678Z,96313.91
2018-12-21T18:43:38.470Z,96313.91
2018-12-21T18:46:07.079Z,96316.77
2018-12-21T18:48:35.664Z,96322.70
2018-12-21T18:51:04.429Z,96325.19
2018-12-21T18:53:32.971Z,96323.30
2018-12-21T18:56:02.184Z,96309.97
2018-12-21T18:58:30.734Z,96320.16
2018-12-21T19:00:59.304Z,96313.17
2018-12-21T19:03:27.890Z,96308.83
2018-12-21T19:05:56.488Z,96307.58
2018-12-21T19:08:25.042Z,96303.83
2018-12-21T19:10:53.622Z,96303.04
2018-12-21T19:13:22.185Z,96306.16
2018-12-21T19:15:50.710Z,96300.88
2018-12-21T19:18:19.298Z,96300.56
2018-12-21T19:20:47.842Z,96291.00
2018-12-21T19:23:16.428Z,96290.03
2018-12-21T19:25:45.114Z,96283.80
2018-12-21T19:28:14.565Z,96285.67
2018-12-21T19:30:43.229Z,96276.39
2018-12-21T19:33:11.776Z,96278.68
2018-12-21T19:35:40.484Z,96274.39
2018-12-21T19:38:09.047Z,96273.73
2018-12-21T19:40:37.594Z,96271.33
2018-12-21T19:43:07.641Z,96277.09
2018-12-21T19:45:36.229Z,96280.05
2018-12-21T19:48:04.792Z,96270.95
2018-12-21T19:50:33.320Z,96274.53
2018-12-21T19:53:02.672Z,96263.84
2018-12-21T19:55:53.230Z,96265.44
2018-12-21T19:58:21.737Z,96263.11
2018-12-21T20:00:50.260Z,96264.05
2018-12-21T20:03:18.779Z,96262.68
2018-12-21T20:05:47.876Z,96260.63
2018-12-21T20:08:16.468Z,96262.23
2018-12-21T20:10:45.006Z,96251.72
2018-12-21T20:13:13.524Z,96258.81
2018-12-21T20:15:42.055Z,96253.39
2018-12-21T20:18:11.189Z,96254.78
2018-12-21T20:20:39.727Z,96247.89
2018-12-21T20:23:08.349Z,96248.63
2018-12-21T20:25:36.940Z,96244.75
2018-12-21T20:28:05.745Z,96240.88
2018-12-21T20:30:34.434Z,96240.06
2018-12-21T20:33:03.392Z,96250.55
2018-12-21T20:35:32.072Z,96237.96
2018-12-21T20:38:01.563Z,96239.12
2018-12-21T20:40:30.108Z,96230.33
2018-12-21T20:42:58.861Z,96239.43
2018-12-21T20:45:27.486Z,96237.81
2018-12-21T20:47:56.014Z,96189.05
2018-12-21T20:50:24.563Z,96227.92
2018-12-21T20:52:53.217Z,96230.86
2018-12-21T20:55:21.874Z,96222.80
2018-12-21T20:57:52.824Z,96222.13
2018-12-21T21:00:21.425Z,96224.84
2018-12-21T21:02:50.024Z,96221.56
2018-12-21T21:05:18.542Z,96226.83
2018-12-21T21:07:47.104Z,96215.25
2018-12-21T21:10:15.621Z,96223.00
2018-12-21T21:12:44.155Z,96218.03
2018-12-21T21:15:13.395Z,96215.54
2018-12-21T21:17:41.917Z,96206.09
2018-12-21T21:20:12.800Z,96207.93
2018-12-21T21:22:41.432Z,96198.05
2018-12-21T21:25:10.068Z,96212.27
2018-12-21T21:27:38.620Z,96211.00
2018-12-21T21:30:14.428Z,96203.03
2018-12-21T21:32:43.011Z,96199.73
2018-12-21T21:35:11.546Z,96005.16
2018-12-21T21:37:40.228Z,96208.09
2018-12-21T21:40:12.629Z,96197.02
2018-12-21T21:42:41.257Z,96204.84
2018-12-21T21:45:09.915Z,96202.83
2018-12-21T21:47:38.456Z,96196.45
2018-12-21T21:50:08.054Z,96204.80
2018-12-21T21:52:36.762Z,96200.62
2018-12-21T21:55:05.515Z,96203.63
2018-12-21T21:57:39.210Z,96207.64
2018-12-21T22:00:13.312Z,96206.33
2018-12-21T22:02:42.183Z,96205.00
2018-12-21T22:05:10.767Z,96198.99
2018-12-21T22:07:39.284Z,96198.06
2018-12-21T22:10:09.934Z,96193.59
2018-12-21T22:12:38.547Z,96185.99
2018-12-21T22:15:08.819Z,96188.17
2018-12-21T22:17:37.512Z,96185.53
2018-12-21T22:20:08.944Z,96188.32
2018-12-21T22:22:37.586Z,96182.04
2018-12-21T22:25:06.476Z,96191.53
2018-12-21T22:27:35.127Z,96191.30
2018-12-21T22:30:11.431Z,96189.06
2018-12-21T22:32:40.059Z,96193.72
2018-12-21T22:35:09.221Z,96183.34
2018-12-21T22:37:37.794Z,96178.64
2018-12-21T22:40:07.228Z,96173.03
2018-12-21T22:42:35.852Z,96179.12
2018-12-21T22:45:04.835Z,96178.72
2018-12-21T22:47:33.560Z,96178.45
2018-12-21T22:50:02.167Z,96178.22
2018-12-21T22:52:30.787Z,96177.86
2018-12-21T22:54:59.426Z,96183.14
2018-12-21T22:57:28.029Z,96175.14
2018-12-21T22:59:56.550Z,96170.09
2018-12-21T23:02:25.065Z,96166.95
2018-12-21T23:04:53.718Z,96169.89
2018-12-21T23:07:22.369Z,96170.90
2018-12-21T23:09:50.898Z,96170.48
2018-12-21T23:12:19.448Z,96164.83
2018-12-21T23:14:48.076Z,96154.80
2018-12-21T23:17:16.658Z,96157.67
2018-12-21T23:19:45.225Z,96146.68
2018-12-21T23:22:13.822Z,96133.87
2018-12-21T23:24:42.491Z,96132.28
2018-12-21T23:27:11.280Z,96121.28
2018-12-21T23:29:40.244Z,96118.45
2018-12-21T23:32:08.909Z,96114.73
2018-12-21T23:34:37.870Z,96112.69
2018-12-21T23:37:06.740Z,96115.97
2018-12-21T23:39:35.305Z,96120.27
2018-12-21T23:42:04.115Z,96120.93
2018-12-21T23:44:32.736Z,96125.47
2018-12-21T23:47:01.468Z,96128.45
2018-12-21T23:49:30.369Z,96129.48
2018-12-21T23:51:59.055Z,96118.30
2018-12-21T23:54:27.890Z,96119.39
2018-12-21T23:56:56.622Z,96131.89
2018-12-21T23:59:25.298Z,96128.02
